Time;durP1;ratioP1;P1;durP2;ratioP2;P2;SDS_P1;SDS_P2;PMS_P1;PMS_P2;Temp;Humidity;BMP_temperature;BMP_pressure;BME280_temperature;BME280_humidity;BME280_pressure;Samples;Min_cycle;Max_cycle;Signal;HPM_P1;HPM_P2
2023/06/07 00:00:50;;;;;;;10.67;4.67;;;15.80;1.00;;;;;;4936717;29;20423;-68
2023/06/07 00:03:16;;;;;;;10.48;5.38;;;15.80;1.00;;;;;;4937609;29;20442;-67
2023/06/07 00:05:43;;;;;;;9.48;4.60;;;15.80;99.90;;;;;;4936754;29;20399;-67
2023/06/07 00:08:09;;;;;;;9.90;5.50;;;15.80;99.90;;;;;;4936151;29;20438;-67
2023/06/07 00:10:36;;;;;;;10.65;5.40;;;15.80;99.90;;;;;;4938014;29;20406;-67
2023/06/07 00:13:04;;;;;;;10.15;5.25;;;15.80;99.90;;;;;;4939743;29;20783;-67
2023/06/07 00:15:30;;;;;;;13.38;5.22;;;15.80;99.90;;;;;;4937810;29;20967;-67
2023/06/07 00:17:59;;;;;;;9.50;5.30;;;15.70;99.90;;;;;;4935178;29;20415;-67
2023/06/07 00:20:26;;;;;;;10.05;5.35;;;15.70;99.90;;;;;;4934755;29;20410;-67
2023/06/07 00:22:55;;;;;;;11.93;5.43;;;15.70;99.90;;;;;;4933136;29;20396;-67
2023/06/07 00:25:21;;;;;;;10.60;5.07;;;15.70;99.90;;;;;;4929842;29;20402;-67
2023/06/07 00:27:46;;;;;;;9.05;5.03;;;15.70;1.00;;;;;;4937014;29;20516;-67
2023/06/07 00:30:12;;;;;;;10.20;5.47;;;15.60;1.00;;;;;;4952167;29;20493;-67
2023/06/07 00:32:38;;;;;;;8.60;4.88;;;15.40;1.00;;;;;;4951966;29;20409;-67
2023/06/07 00:35:07;;;;;;;10.33;5.97;;;15.20;99.90;;;;;;4950771;28;20398;-67
2023/06/07 00:37:32;;;;;;;10.35;5.72;;;15.20;99.90;;;;;;4950335;29;20834;-67
2023/06/07 00:39:58;;;;;;;10.40;5.73;;;15.10;1.00;;;;;;4950487;29;20461;-67
2023/06/07 00:42:23;;;;;;;11.37;5.80;;;15.00;99.90;;;;;;4933077;29;20406;-67
2023/06/07 00:44:49;;;;;;;12.60;5.90;;;14.90;99.90;;;;;;4950115;29;20696;-67
2023/06/07 00:47:14;;;;;;;10.77;6.20;;;14.90;99.90;;;;;;4950446;29;20424;-67
2023/06/07 00:49:41;;;;;;;10.70;5.87;;;14.90;1.00;;;;;;4949902;29;20432;-67
2023/06/07 00:52:07;;;;;;;10.93;5.57;;;14.90;99.90;;;;;;4949787;29;20569;-67
2023/06/07 00:54:32;;;;;;;9.13;5.35;;;14.90;99.90;;;;;;4949666;29;20544;-67
2023/06/07 00:56:58;;;;;;;10.80;5.80;;;14.90;99.90;;;;;;4949956;29;20696;-67
2023/06/07 00:59:23;;;;;;;9.83;5.30;;;14.90;99.90;;;;;;4950096;29;20480;-67
2023/06/07 01:01:53;;;;;;;9.60;5.40;;;14.90;29.30;;;;;;4949207;29;20437;-67
2023/06/07 01:04:23;;;;;;;9.30;5.25;;;14.90;1.00;;;;;;4949049;29;20398;-67
2023/06/07 01:06:52;;;;;;;10.65;5.40;;;14.80;99.90;;;;;;4949357;29;20409;-67
2023/06/07 01:09:19;;;;;;;10.73;5.50;;;14.70;99.90;;;;;;4938528;29;20812;-67
2023/06/07 01:11:48;;;;;;;10.20;5.80;;;14.60;1.00;;;;;;4930675;29;20395;-67
2023/06/07 01:14:15;;;;;;;9.88;5.63;;;14.50;1.00;;;;;;4930724;29;20396;-67
2023/06/07 01:16:44;;;;;;;10.90;5.55;;;14.50;1.00;;;;;;4929722;29;21069;-68
2023/06/07 01:19:21;;;;;;;9.30;5.38;;;14.40;1.00;;;;;;4930252;29;20402;-67
2023/06/07 01:21:50;;;;;;;9.70;5.30;;;14.40;3.10;;;;;;4931210;29;20895;-68
2023/06/07 01:24:18;;;;;;;10.25;5.72;;;14.30;99.90;;;;;;4930868;29;20431;-67
2023/06/07 01:26:48;;;;;;;10.35;6.03;;;14.20;99.90;;;;;;4930597;29;20408;-68
2023/06/07 01:29:15;;;;;;;10.87;6.60;;;14.20;1.00;;;;;;4930345;29;20439;-68
2023/06/07 01:31:43;;;;;;;11.40;5.93;;;14.20;1.00;;;;;;4929087;29;20773;-67
2023/06/07 01:34:09;;;;;;;12.05;6.70;;;14.10;99.90;;;;;;4930001;29;20500;-68
2023/06/07 01:36:34;;;;;;;11.85;6.40;;;14.10;1.00;;;;;;4930618;29;20415;-68
2023/06/07 01:39:00;;;;;;;11.32;6.40;;;14.10;99.90;;;;;;4930045;29;20494;-68
2023/06/07 01:41:31;;;;;;;10.75;5.80;;;14.20;99.90;;;;;;4930151;29;20482;-68
2023/06/07 01:43:58;;;;;;;11.00;6.63;;;14.10;99.90;;;;;;4929528;29;20832;-68
2023/06/07 01:46:25;;;;;;;11.05;6.22;;;14.10;99.90;;;;;;4929871;29;20780;-68
2023/06/07 01:48:51;;;;;;;13.27;6.30;;;14.10;99.90;;;;;;4933318;29;20432;-68
2023/06/07 01:51:16;;;;;;;12.07;6.77;;;14.10;99.90;;;;;;4933966;29;20410;-67
2023/06/07 01:53:43;;;;;;;13.17;7.00;;;14.00;1.00;;;;;;4934085;29;20387;-67
2023/06/07 01:56:21;;;;;;;10.80;6.50;;;14.00;1.00;;;;;;4933435;29;20915;-67
2023/06/07 01:59:09;;;;;;;12.00;6.50;;;14.00;1.00;;;;;;4936864;29;20451;-68
2023/06/07 02:01:54;;;;;;;11.68;6.63;;;13.90;1.00;;;;;;4952370;29;20442;-67
2023/06/07 02:04:22;;;;;;;11.70;6.50;;;13.90;1.00;;;;;;4952477;29;20413;-68
2023/06/07 02:06:51;;;;;;;9.97;6.17;;;13.80;1.00;;;;;;4952447;29;20757;-68
2023/06/07 02:09:19;;;;;;;10.88;6.55;;;13.70;1.00;;;;;;4952712;29;20841;-68
2023/06/07 02:11:46;;;;;;;10.60;6.27;;;13.70;1.00;;;;;;4952675;29;20420;-68
2023/06/07 02:14:12;;;;;;;11.63;6.97;;;13.60;1.00;;;;;;4952045;29;20397;-68
2023/06/07 02:16:38;;;;;;;11.27;6.50;;;13.60;40.50;;;;;;4952224;29;20905;-67
2023/06/07 02:19:07;;;;;;;10.68;6.50;;;13.50;97.80;;;;;;4951869;29;20408;-67
2023/06/07 02:21:37;;;;;;;10.25;5.85;;;13.50;99.90;;;;;;4951790;29;20406;-67
2023/06/07 02:24:06;;;;;;;9.87;6.20;;;13.50;99.90;;;;;;4952154;29;20390;-67
2023/06/07 02:26:33;;;;;;;11.60;6.90;;;13.60;99.90;;;;;;4952040;29;20390;-67
2023/06/07 02:28:58;;;;;;;11.57;7.10;;;13.60;99.90;;;;;;4952733;29;20520;-66
2023/06/07 02:31:25;;;;;;;11.10;6.38;;;13.70;1.00;;;;;;4952070;29;20623;-67
2023/06/07 02:33:51;;;;;;;11.57;7.03;;;13.70;1.00;;;;;;4952150;29;20468;-67
2023/06/07 02:36:25;;;;;;;11.60;7.07;;;13.70;1.00;;;;;;4952639;29;20874;-67
2023/06/07 02:38:51;;;;;;;11.73;6.90;;;13.70;7.00;;;;;;4952436;29;20402;-67
2023/06/07 02:41:17;;;;;;;15.13;7.63;;;13.70;26.30;;;;;;4952281;29;20437;-67
2023/06/07 02:43:43;;;;;;;13.13;7.63;;;13.70;99.90;;;;;;4951968;29;20481;-67
2023/06/07 02:46:11;;;;;;;12.70;7.60;;;13.60;99.90;;;;;;4953249;29;20440;-67
2023/06/07 02:48:37;;;;;;;13.87;8.17;;;13.70;99.90;;;;;;4958257;29;20525;-66
2023/06/07 02:51:02;;;;;;;12.93;7.50;;;13.60;99.90;;;;;;4957947;29;20866;-67
2023/06/07 02:53:28;;;;;;;12.67;7.10;;;13.60;99.90;;;;;;4956768;29;20425;-67
2023/06/07 02:55:54;;;;;;;13.30;7.57;;;13.40;99.90;;;;;;4956113;29;20526;-66
2023/06/07 02:58:19;;;;;;;13.07;7.50;;;13.40;99.90;;;;;;4939025;29;20497;-67
2023/06/07 03:00:49;;;;;;;11.35;6.53;;;13.40;1.00;;;;;;4957692;29;20945;-67
2023/06/07 03:03:18;;;;;;;13.00;7.30;;;13.40;1.00;;;;;;4956364;29;20514;-67
2023/06/07 03:05:48;;;;;;;14.35;7.60;;;13.40;99.90;;;;;;4956077;29;20418;-67
2023/06/07 03:08:13;;;;;;;11.15;6.90;;;13.50;99.90;;;;;;4955593;29;20433;-67
2023/06/07 03:10:39;;;;;;;9.65;6.25;;;13.50;99.90;;;;;;4954409;29;20405;-67
2023/06/07 03:13:04;;;;;;;11.00;6.93;;;13.40;99.90;;;;;;4954279;29;20470;-67
2023/06/07 03:15:30;;;;;;;11.30;6.80;;;13.30;99.90;;;;;;4954339;29;20545;-67
2023/06/07 03:17:55;;;;;;;13.68;8.10;;;13.20;99.90;;;;;;4953849;29;20393;-67
2023/06/07 03:20:21;;;;;;;11.02;6.60;;;13.10;1.00;;;;;;4953834;29;20398;-67
2023/06/07 03:22:47;;;;;;;10.93;6.90;;;13.00;1.00;;;;;;4953651;29;20791;-67
2023/06/07 03:25:13;;;;;;;11.73;6.55;;;13.00;1.00;;;;;;4953565;29;20402;-67
2023/06/07 03:27:39;;;;;;;12.07;7.60;;;13.10;1.00;;;;;;4953217;29;20759;-67
2023/06/07 03:30:06;;;;;;;15.15;8.95;;;13.00;1.00;;;;;;4952242;29;20414;-67
2023/06/07 03:32:32;;;;;;;14.45;8.63;;;13.00;1.00;;;;;;4952204;29;20460;-67
2023/06/07 03:34:57;;;;;;;16.77;8.10;;;12.90;1.00;;;;;;4952538;29;20477;-67
2023/06/07 03:37:23;;;;;;;12.20;7.43;;;12.90;1.00;;;;;;4952477;29;20474;-67
2023/06/07 03:39:48;;;;;;;13.53;7.87;;;12.90;26.80;;;;;;4952675;29;20394;-68
2023/06/07 03:42:14;;;;;;;13.25;7.53;;;12.90;1.00;;;;;;4952520;29;20406;-67
2023/06/07 03:44:39;;;;;;;12.10;7.10;;;12.90;1.00;;;;;;4951919;29;20907;-67
2023/06/07 03:47:05;;;;;;;11.80;7.00;;;12.90;1.00;;;;;;4951778;29;20402;-67
2023/06/07 03:49:30;;;;;;;13.50;8.00;;;13.00;1.00;;;;;;4952002;29;20461;-67
2023/06/07 03:51:56;;;;;;;12.50;7.47;;;13.00;1.00;;;;;;4951728;29;20770;-67
2023/06/07 03:54:22;;;;;;;12.03;7.40;;;13.10;1.00;;;;;;4952209;29;20401;-67
2023/06/07 03:56:47;;;;;;;12.70;7.60;;;13.20;1.00;;;;;;4952392;29;20389;-67
2023/06/07 03:59:13;;;;;;;12.05;7.28;;;13.20;99.90;;;;;;4951787;29;20945;-67
2023/06/07 04:01:39;;;;;;;12.47;6.97;;;13.30;99.90;;;;;;4951206;29;20811;-67
2023/06/07 04:04:05;;;;;;;13.98;8.00;;;13.30;99.90;;;;;;4951958;29;20890;-67
2023/06/07 04:06:31;;;;;;;12.60;7.40;;;13.40;99.90;;;;;;4951491;29;20456;-67
2023/06/07 04:08:59;;;;;;;13.45;7.75;;;13.50;99.90;;;;;;4951521;29;20720;-67
2023/06/07 04:11:27;;;;;;;14.07;7.97;;;13.40;1.00;;;;;;4943873;28;20623;-67
2023/06/07 04:13:52;;;;;;;12.50;7.25;;;13.40;1.00;;;;;;4931981;29;20486;-67
2023/06/07 04:16:18;;;;;;;12.70;8.00;;;13.50;1.00;;;;;;4931522;29;20415;-67
2023/06/07 04:18:44;;;;;;;14.43;8.60;;;13.50;1.00;;;;;;4932455;29;20406;-67
2023/06/07 04:21:09;;;;;;;13.43;8.37;;;13.60;1.00;;;;;;4931731;29;20454;-67
2023/06/07 04:23:35;;;;;;;15.23;7.57;;;13.80;99.90;;;;;;4931784;29;20424;-67
2023/06/07 04:26:04;;;;;;;14.23;7.32;;;13.90;99.90;;;;;;4934393;29;20404;-67
2023/06/07 04:28:30;;;;;;;11.30;7.30;;;14.00;99.90;;;;;;4935723;29;20443;-67
2023/06/07 04:30:57;;;;;;;14.27;8.50;;;14.20;99.90;;;;;;4919555;29;20412;-67
2023/06/07 04:33:23;;;;;;;17.13;8.10;;;14.30;86.50;;;;;;4948411;29;20392;-67
2023/06/07 04:35:50;;;;;;;14.75;7.93;;;14.50;1.00;;;;;;4933561;29;20398;-68
2023/06/07 04:38:20;;;;;;;12.00;7.37;;;14.70;99.90;;;;;;4951661;29;20544;-67
2023/06/07 04:40:49;;;;;;;12.18;7.50;;;14.80;1.00;;;;;;4951428;29;20481;-67
2023/06/07 04:43:17;;;;;;;12.30;7.18;;;14.90;99.90;;;;;;4951266;29;20405;-67
2023/06/07 04:45:43;;;;;;;12.55;7.00;;;15.00;99.90;;;;;;4951143;29;20401;-67
2023/06/07 04:48:11;;;;;;;12.87;7.30;;;15.20;99.90;;;;;;4933152;29;20433;-67
2023/06/07 04:50:41;;;;;;;13.40;7.57;;;15.30;94.50;;;;;;4929221;29;20419;-67
2023/06/07 04:53:08;;;;;;;12.90;7.77;;;15.50;1.00;;;;;;4920605;29;20473;-67
2023/06/07 04:55:35;;;;;;;13.10;7.90;;;15.90;1.00;;;;;;4912422;29;20910;-67
2023/06/07 04:58:05;;;;;;;12.93;7.47;;;16.90;99.90;;;;;;4912110;29;20481;-67
2023/06/07 05:00:31;;;;;;;14.30;8.02;;;17.80;1.00;;;;;;4919130;29;20837;-68
2023/06/07 05:02:58;;;;;;;12.20;6.97;;;19.30;1.00;;;;;;4931371;29;20407;-68
2023/06/07 05:05:24;;;;;;;11.20;6.90;;;20.70;1.00;;;;;;4931563;29;20416;-68
2023/06/07 05:07:49;;;;;;;10.80;6.47;;;21.90;99.90;;;;;;4931419;29;20455;-68
2023/06/07 05:10:17;;;;;;;11.23;6.80;;;22.50;99.90;;;;;;4914497;29;20416;-68
2023/06/07 05:12:42;;;;;;;11.68;7.47;;;23.00;99.90;;;;;;4930336;29;20710;-68
2023/06/07 05:15:08;;;;;;;11.68;7.05;;;23.30;99.90;;;;;;4934944;29;20433;-68
2023/06/07 05:17:34;;;;;;;11.35;7.20;;;23.80;99.90;;;;;;4949957;29;20815;-68
2023/06/07 05:20:00;;;;;;;12.47;7.00;;;24.20;99.90;;;;;;4950242;29;20409;-68
2023/06/07 05:22:25;;;;;;;11.70;7.07;;;24.20;99.90;;;;;;4945706;29;20425;-68
2023/06/07 05:24:51;;;;;;;10.37;6.90;;;24.80;99.90;;;;;;4937078;29;20408;-68
2023/06/07 05:27:17;;;;;;;11.30;7.03;;;25.20;99.90;;;;;;4947844;29;20441;-68
2023/06/07 05:29:43;;;;;;;12.25;7.80;;;24.90;99.90;;;;;;4950873;29;20877;-68
2023/06/07 05:32:09;;;;;;;11.60;7.53;;;25.50;99.90;;;;;;4950625;29;20394;-68
2023/06/07 05:34:35;;;;;;;13.50;7.63;;;26.00;99.90;;;;;;4948814;29;20427;-68
2023/06/07 05:37:03;;;;;;;11.83;7.10;;;;;;;;;;4949703;29;20402;-68
2023/06/07 05:39:29;;;;;;;11.30;6.87;;;26.20;99.90;;;;;;4949824;29;20401;-68
2023/06/07 05:41:55;;;;;;;12.90;6.73;;;26.30;99.90;;;;;;4948805;29;20425;-68
2023/06/07 05:44:20;;;;;;;11.30;6.60;;;26.30;99.90;;;;;;4949426;29;20401;-68
2023/06/07 05:46:46;;;;;;;10.90;6.70;;;26.30;99.90;;;;;;4950243;29;20405;-68
2023/06/07 05:49:11;;;;;;;9.73;6.10;;;26.20;99.90;;;;;;4949618;29;20474;-68
2023/06/07 05:51:37;;;;;;;10.07;6.68;;;25.90;99.90;;;;;;4949391;29;20401;-68
2023/06/07 05:54:03;;;;;;;11.55;6.90;;;25.60;99.90;;;;;;4939490;29;20759;-68
2023/06/07 05:56:29;;;;;;;10.43;6.60;;;25.80;99.90;;;;;;4949254;29;20440;-68
2023/06/07 05:58:54;;;;;;;10.30;6.40;;;26.00;99.90;;;;;;4949193;29;20859;-68
2023/06/07 06:01:20;;;;;;;10.98;7.60;;;26.50;99.90;;;;;;4943726;29;20808;-68
2023/06/07 06:03:46;;;;;;;10.60;6.50;;;27.30;99.90;;;;;;4938874;29;20395;-68
2023/06/07 06:06:17;;;;;;;9.77;5.95;;;27.20;99.90;;;;;;4938325;29;20411;-68
2023/06/07 06:08:44;;;;;;;14.97;7.20;;;27.50;99.90;;;;;;4950311;29;20827;-68
2023/06/07 06:11:11;;;;;;;10.80;7.07;;;27.30;99.90;;;;;;4943342;29;20382;-68
2023/06/07 06:13:40;;;;;;;9.82;5.93;;;27.40;99.90;;;;;;4943147;29;20391;-68
2023/06/07 06:16:06;;;;;;;10.13;6.30;;;27.60;99.90;;;;;;4944327;28;20391;-68
2023/06/07 06:18:32;;;;;;;10.82;6.72;;;28.40;99.90;;;;;;4944190;29;20824;-69
2023/06/07 06:20:58;;;;;;;9.87;6.03;;;28.30;99.90;;;;;;4944949;29;20477;-69
2023/06/07 06:23:24;;;;;;;10.87;6.40;;;29.60;99.90;;;;;;4941382;29;20411;-69
2023/06/07 06:25:50;;;;;;;10.40;6.00;;;29.70;99.90;;;;;;4942242;29;20402;-69
2023/06/07 06:28:16;;;;;;;10.70;5.93;;;29.70;99.90;;;;;;4946702;29;20437;-68
2023/06/07 06:30:42;;;;;;;9.88;6.47;;;30.00;99.90;;;;;;4959092;28;20501;-68
2023/06/07 06:33:07;;;;;;;10.20;6.30;;;30.30;99.90;;;;;;4937120;29;20486;-68
2023/06/07 06:35:33;;;;;;;9.77;6.10;;;30.10;99.90;;;;;;4950922;29;20444;-69
2023/06/07 06:37:59;;;;;;;10.20;6.13;;;29.50;99.90;;;;;;4952676;29;20507;-68
2023/06/07 06:40:26;;;;;;;10.73;6.13;;;29.00;99.90;;;;;;4945860;29;20396;-69
2023/06/07 06:42:51;;;;;;;12.02;5.90;;;30.10;99.90;;;;;;4946035;29;20413;-69
2023/06/07 06:45:17;;;;;;;10.33;6.00;;;29.80;99.90;;;;;;4953399;29;20478;-69
2023/06/07 06:47:42;;;;;;;10.97;5.70;;;29.80;99.90;;;;;;4936808;29;20384;-69
2023/06/07 06:50:10;;;;;;;9.18;5.50;;;30.60;99.90;;;;;;4947885;29;20907;-69
2023/06/07 06:52:37;;;;;;;9.57;5.75;;;30.90;99.90;;;;;;4948310;29;20974;-69
2023/06/07 06:55:03;;;;;;;8.90;5.80;;;30.70;99.90;;;;;;4950782;29;20414;-69
2023/06/07 06:57:28;;;;;;;8.93;5.20;;;30.80;99.90;;;;;;4951818;29;20778;-69
2023/06/07 06:59:54;;;;;;;9.33;5.70;;;31.90;99.90;;;;;;4947972;29;20413;-69
2023/06/07 07:02:19;;;;;;;8.25;5.15;;;31.60;99.90;;;;;;4931244;29;20407;-69
2023/06/07 07:04:45;;;;;;;10.77;5.00;;;31.70;99.90;;;;;;4933476;29;20486;-69
2023/06/07 07:07:11;;;;;;;9.40;5.13;;;31.60;99.90;;;;;;4932360;29;20884;-69
2023/06/07 07:09:36;;;;;;;10.40;5.20;;;31.30;99.90;;;;;;4942445;29;20518;-69
2023/06/07 07:12:02;;;;;;;9.18;5.07;;;31.10;99.90;;;;;;4920167;29;20801;-69
2023/06/07 07:14:28;;;;;;;8.77;5.00;;;30.70;99.90;;;;;;4927538;29;20458;-69
2023/06/07 07:16:53;;;;;;;8.97;4.70;;;31.70;99.90;;;;;;4932473;29;20392;-69
2023/06/07 07:19:19;;;;;;;9.10;4.77;;;32.10;99.90;;;;;;4932443;29;20391;-69
2023/06/07 07:21:44;;;;;;;9.73;4.63;;;32.00;99.90;;;;;;4932716;29;20407;-69
2023/06/07 07:24:10;;;;;;;8.30;4.43;;;31.90;99.90;;;;;;4932178;29;20407;-69
2023/06/07 07:26:36;;;;;;;8.60;4.23;;;31.10;99.90;;;;;;4932134;29;20411;-69
2023/06/07 07:29:02;;;;;;;7.95;4.18;;;31.20;99.90;;;;;;4932299;29;20435;-69
2023/06/07 07:31:30;;;;;;;8.70;3.00;;;30.90;99.90;;;;;;4930941;29;20431;-69
2023/06/07 07:33:56;;;;;;;7.72;4.00;;;31.30;99.90;;;;;;4929214;29;20417;-69
2023/06/07 07:36:23;;;;;;;10.80;3.80;;;31.00;99.90;;;;;;4932300;29;20487;-69
2023/06/07 07:38:51;;;;;;;8.20;3.40;;;30.70;99.90;;;;;;4930910;29;20410;-69
2023/06/07 07:41:17;;;;;;;9.13;3.90;;;31.30;99.90;;;;;;4931312;29;20792;-69
2023/06/07 07:43:44;;;;;;;9.00;4.10;;;31.60;99.90;;;;;;4951694;29;20545;-69
2023/06/07 07:46:09;;;;;;;8.00;3.90;;;31.20;99.90;;;;;;4933263;29;20419;-69
2023/06/07 07:48:35;;;;;;;7.30;3.70;;;31.50;99.90;;;;;;4931718;29;20432;-69
2023/06/07 07:51:02;;;;;;;6.50;3.50;;;32.30;99.90;;;;;;4932121;29;20399;-69
2023/06/07 07:53:28;;;;;;;7.15;3.10;;;33.10;99.90;;;;;;4932528;29;20744;-69
2023/06/07 07:55:54;;;;;;;8.03;3.57;;;33.30;99.90;;;;;;4932213;29;20897;-70
2023/06/07 07:58:19;;;;;;;6.80;2.80;;;32.80;99.90;;;;;;4931972;29;20478;-70
2023/06/07 08:00:45;;;;;;;6.85;3.00;;;32.90;99.90;;;;;;4940754;29;20485;-67
2023/06/07 08:03:11;;;;;;;7.22;3.60;;;32.30;99.90;;;;;;4951261;29;20413;-67
2023/06/07 08:05:37;;;;;;;8.17;4.03;;;31.90;99.90;;;;;;4951019;29;20398;-68
2023/06/07 08:08:03;;;;;;;8.27;3.77;;;32.00;99.90;;;;;;4950977;29;20509;-70
2023/06/07 08:10:28;;;;;;;6.47;3.25;;;31.80;99.90;;;;;;4950811;29;20394;-69
2023/06/07 08:12:54;;;;;;;6.27;2.80;;;31.70;99.90;;;;;;4951112;29;20461;-70
2023/06/07 08:15:19;;;;;;;8.60;3.50;;;30.70;99.90;;;;;;4951499;29;20398;-69
2023/06/07 08:17:45;;;;;;;7.73;3.30;;;29.80;99.90;;;;;;4951545;29;20850;-69
2023/06/07 08:20:11;;;;;;;8.13;3.30;;;30.90;99.90;;;;;;4950875;29;20402;-69
2023/06/07 08:22:37;;;;;;;7.40;3.40;;;31.60;99.90;;;;;;4951066;29;20390;-70
2023/06/07 08:25:04;;;;;;;8.52;2.97;;;32.50;99.90;;;;;;4950897;29;20484;-70
2023/06/07 08:27:31;;;;;;;8.10;3.10;;;32.70;99.90;;;;;;4951193;29;20393;-69
2023/06/07 08:29:56;;;;;;;8.10;3.77;;;33.10;99.90;;;;;;4950644;29;20505;-67
2023/06/07 08:32:22;;;;;;;7.97;3.80;;;33.40;99.90;;;;;;4950924;29;20493;-69
2023/06/07 08:34:48;;;;;;;8.40;4.20;;;32.10;99.90;;;;;;4950831;29;20394;-71
2023/06/07 08:37:13;;;;;;;7.30;3.00;;;32.20;99.90;;;;;;4951235;29;20398;-69
2023/06/07 08:39:39;;;;;;;7.40;3.67;;;32.80;99.90;;;;;;4950609;29;20398;-70
2023/06/07 08:42:05;;;;;;;7.88;3.45;;;33.60;99.90;;;;;;4950832;29;20461;-70
2023/06/07 08:44:31;;;;;;;7.38;3.50;;;34.10;99.90;;;;;;4950610;29;20390;-68
2023/06/07 08:46:57;;;;;;;7.30;3.25;;;33.20;99.90;;;;;;4950711;29;20394;-69
2023/06/07 08:49:24;;;;;;;6.80;3.30;;;33.20;99.90;;;;;;4950164;29;20841;-68
2023/06/07 08:51:51;;;;;;;6.90;3.30;;;33.80;99.90;;;;;;4950454;29;20457;-69
2023/06/07 08:54:20;;;;;;;8.15;3.03;;;33.60;99.90;;;;;;4950713;29;20394;-69
2023/06/07 08:56:47;;;;;;;6.33;2.33;;;33.40;99.90;;;;;;4950523;28;20876;-69
2023/06/07 08:59:14;;;;;;;9.10;2.80;;;33.60;99.90;;;;;;4951305;29;20410;-69
2023/06/07 09:01:41;;;;;;;8.35;3.50;;;32.60;99.90;;;;;;4950230;29;20425;-68
2023/06/07 09:04:07;;;;;;;7.05;2.28;;;30.30;99.90;;;;;;4950320;29;20428;-68
2023/06/07 09:06:34;;;;;;;7.70;3.30;;;28.10;99.90;;;;;;4950487;29;20386;-68
2023/06/07 09:09:01;;;;;;;10.02;3.00;;;27.80;99.90;;;;;;4949859;29;20418;-68
2023/06/07 09:11:26;;;;;;;7.28;3.10;;;27.30;99.90;;;;;;4950326;29;20408;-68
2023/06/07 09:13:56;;;;;;;6.10;2.30;;;26.90;99.90;;;;;;4950183;29;20859;-69
2023/06/07 09:16:21;;;;;;;5.60;1.70;;;27.00;99.90;;;;;;4950186;29;20461;-69
2023/06/07 09:18:53;;;;;;;6.60;2.20;;;28.50;99.90;;;;;;4950676;29;20401;-69
2023/06/07 09:21:29;;;;;;;5.50;1.60;;;30.30;99.90;;;;;;4950952;29;20441;-69
2023/06/07 09:23:58;;;;;;;6.70;2.00;;;30.10;99.90;;;;;;4951603;29;20390;-69
2023/06/07 09:26:33;;;;;;;5.88;2.00;;;29.10;99.90;;;;;;4950228;29;20796;-69
2023/06/07 09:29:08;;;;;;;7.20;2.70;;;30.30;99.90;;;;;;4950464;29;20433;-69
2023/06/07 09:31:36;;;;;;;7.60;3.65;;;31.80;99.90;;;;;;4952335;29;20906;-69
2023/06/07 09:34:21;;;;;;;8.60;2.80;;;33.10;99.90;;;;;;4954833;29;20479;-69
2023/06/07 09:36:57;;;;;;;7.80;2.90;;;34.40;99.90;;;;;;4953313;29;20459;-69
2023/06/07 09:39:28;;;;;;;7.10;3.30;;;33.80;99.90;;;;;;4952067;29;20416;-68
2023/06/07 09:41:55;;;;;;;7.20;3.27;;;31.40;99.90;;;;;;4951495;29;20913;-68
2023/06/07 09:44:22;;;;;;;7.28;3.50;;;29.60;99.90;;;;;;4950887;29;20480;-68
2023/06/07 09:46:50;;;;;;;6.80;2.70;;;28.80;99.90;;;;;;4950093;29;20394;-69
2023/06/07 09:49:26;;;;;;;6.78;2.50;;;29.40;99.90;;;;;;4950377;29;20847;-68
2023/06/07 09:51:53;;;;;;;6.05;2.42;;;30.90;99.90;;;;;;4950220;29;20759;-69
2023/06/07 09:54:33;;;;;;;6.53;2.65;;;32.40;99.90;;;;;;4950280;29;20891;-69
2023/06/07 09:56:59;;;;;;;6.35;2.58;;;33.50;99.90;;;;;;4949987;29;20489;-68
2023/06/07 09:59:24;;;;;;;8.33;2.80;;;33.10;99.90;;;;;;4950196;29;20915;-70
2023/06/07 10:01:52;;;;;;;7.00;3.03;;;33.60;99.90;;;;;;4949746;29;20429;-70
2023/06/07 10:04:17;;;;;;;7.10;3.40;;;32.30;99.90;;;;;;4950466;29;20667;-70
2023/06/07 10:06:45;;;;;;;6.47;2.53;;;32.50;99.90;;;;;;4950690;29;20430;-70
2023/06/07 10:09:12;;;;;;;5.95;2.40;;;33.40;99.90;;;;;;4953546;28;20464;-70
2023/06/07 10:11:39;;;;;;;6.20;2.60;;;33.40;99.90;;;;;;4954525;29;21206;-70
2023/06/07 10:14:13;;;;;;;6.93;2.60;;;33.90;99.90;;;;;;4953204;29;20461;-70
2023/06/07 10:16:52;;;;;;;8.57;3.08;;;33.70;99.90;;;;;;4953468;29;20390;-70
2023/06/07 10:19:21;;;;;;;6.03;2.50;;;34.20;99.90;;;;;;4953879;29;20433;-70
2023/06/07 10:21:49;;;;;;;6.10;2.30;;;34.20;99.90;;;;;;4953696;29;20390;-70
2023/06/07 10:24:24;;;;;;;6.30;2.88;;;35.20;99.90;;;;;;4936364;29;20485;-69
2023/06/07 10:27:13;;;;;;;6.75;2.60;;;35.30;99.90;;;;;;4953552;29;20476;-70
2023/06/07 10:29:45;;;;;;;6.88;2.50;;;33.80;99.90;;;;;;4953203;29;20426;-70
2023/06/07 10:32:22;;;;;;;7.00;2.50;;;32.90;99.90;;;;;;4953428;29;20406;-69
2023/06/07 10:34:50;;;;;;;6.57;2.47;;;31.10;99.90;;;;;;4953252;29;20536;-70
2023/06/07 10:37:17;;;;;;;6.10;2.33;;;30.50;99.90;;;;;;4953728;29;20437;-69
2023/06/07 10:39:44;;;;;;;6.60;2.40;;;30.80;99.90;;;;;;4953098;29;20501;-69
2023/06/07 10:42:11;;;;;;;6.60;2.97;;;30.40;99.90;;;;;;4953180;29;20390;-69
2023/06/07 10:44:38;;;;;;;7.18;2.80;;;29.80;99.90;;;;;;4953022;29;20988;-69
2023/06/07 10:47:26;;;;;;;6.57;2.40;;;30.00;99.90;;;;;;4953233;29;20386;-69
2023/06/07 10:49:52;;;;;;;8.10;2.30;;;29.80;99.90;;;;;;4953116;29;20421;-69
2023/06/07 10:52:18;;;;;;;6.40;2.13;;;29.70;99.90;;;;;;4953231;29;20452;-70
2023/06/07 10:54:45;;;;;;;6.88;2.47;;;29.10;99.90;;;;;;4953232;29;20461;-69
2023/06/07 10:57:10;;;;;;;10.20;2.22;;;28.60;99.90;;;;;;4952814;29;20863;-69
2023/06/07 10:59:38;;;;;;;6.30;2.40;;;29.00;99.90;;;;;;4952307;29;20465;-69
2023/06/07 11:02:39;;;;;;;7.20;2.58;;;29.10;99.90;;;;;;4952867;29;20433;-69
2023/06/07 11:05:05;;;;;;;6.20;2.30;;;29.30;99.90;;;;;;4874920;29;20417;-69
2023/06/07 11:07:31;;;;;;;6.88;2.60;;;28.60;99.90;;;;;;4937391;29;20409;-69
2023/06/07 11:10:02;;;;;;;5.90;2.30;;;28.20;99.90;;;;;;4952831;29;20426;-69
2023/06/07 11:12:46;;;;;;;5.90;2.30;;;28.00;99.90;;;;;;4952682;29;20402;-69
2023/06/07 11:15:17;;;;;;;6.70;2.40;;;27.50;99.90;;;;;;4952462;29;20408;-69
2023/06/07 11:18:00;;;;;;;6.50;2.57;;;27.70;99.90;;;;;;4953062;29;20390;-69
2023/06/07 11:20:43;;;;;;;6.20;2.47;;;27.90;99.90;;;;;;4951656;28;20756;-69
2023/06/07 11:23:29;;;;;;;6.57;2.40;;;27.70;99.90;;;;;;4952362;29;20398;-69
2023/06/07 11:26:07;;;;;;;6.25;2.50;;;27.80;99.90;;;;;;4954505;29;20404;-69
2023/06/07 11:28:34;;;;;;;6.50;2.70;;;27.90;99.90;;;;;;4953765;29;20430;-69
2023/06/07 11:31:01;;;;;;;6.30;2.30;;;28.60;99.90;;;;;;4953195;29;20907;-69
2023/06/07 11:33:27;;;;;;;5.93;2.25;;;28.80;99.90;;;;;;4952563;29;20724;-69
2023/06/07 11:35:54;;;;;;;6.72;2.50;;;28.60;99.90;;;;;;4952243;29;20458;-69
2023/06/07 11:38:20;;;;;;;6.40;2.80;;;28.30;99.90;;;;;;4952243;29;20449;-69
2023/06/07 11:40:47;;;;;;;5.80;2.28;;;28.40;99.90;;;;;;4935244;29;20492;-69
2023/06/07 11:43:14;;;;;;;6.50;2.70;;;28.40;99.90;;;;;;4951558;29;20410;-69
2023/06/07 11:45:40;;;;;;;5.82;2.20;;;28.60;99.90;;;;;;4951726;29;20473;-69
2023/06/07 11:48:07;;;;;;;5.90;2.30;;;28.70;99.90;;;;;;4934394;29;20413;-69
2023/06/07 11:50:35;;;;;;;6.57;2.30;;;28.70;99.90;;;;;;4934422;29;20545;-69
2023/06/07 11:53:01;;;;;;;5.93;2.20;;;29.00;99.90;;;;;;4951543;29;20401;-69
2023/06/07 11:55:27;;;;;;;6.85;2.40;;;29.10;99.90;;;;;;4951742;29;20747;-69
2023/06/07 11:57:53;;;;;;;6.28;2.35;;;28.60;99.90;;;;;;4933894;29;20405;-69
2023/06/07 12:00:23;;;;;;;6.10;2.40;;;27.90;99.90;;;;;;4930839;29;20416;-70
2023/06/07 12:02:50;;;;;;;5.93;1.90;;;27.70;99.90;;;;;;4932855;29;20384;-70
2023/06/07 12:05:17;;;;;;;8.20;2.20;;;27.60;99.90;;;;;;4933204;29;20399;-69
2023/06/07 12:07:43;;;;;;;5.67;2.10;;;27.50;99.90;;;;;;4932936;29;20399;-68
2023/06/07 12:10:10;;;;;;;6.07;2.10;;;27.30;99.90;;;;;;4932305;29;20478;-69
2023/06/07 12:12:39;;;;;;;5.87;2.30;;;27.10;99.90;;;;;;4931805;29;20399;-69
2023/06/07 12:15:07;;;;;;;5.80;2.30;;;27.30;99.90;;;;;;4932028;29;20463;-69
2023/06/07 12:17:35;;;;;;;6.05;2.13;;;27.70;99.90;;;;;;4932476;29;20761;-69
2023/06/07 12:20:12;;;;;;;5.90;1.90;;;28.00;99.90;;;;;;4932250;29;20427;-69
2023/06/07 12:22:38;;;;;;;6.93;2.40;;;28.50;99.90;;;;;;4932060;29;20395;-69
2023/06/07 12:25:12;;;;;;;8.20;2.22;;;28.70;99.90;;;;;;4932291;29;20821;-69
2023/06/07 12:27:37;;;;;;;6.00;1.90;;;28.90;99.90;;;;;;4931724;29;20410;-69
2023/06/07 12:30:07;;;;;;;5.93;2.00;;;28.80;99.90;;;;;;4931723;29;20419;-68
2023/06/07 12:32:33;;;;;;;6.85;2.25;;;28.90;99.90;;;;;;4930886;29;20414;-69
2023/06/07 12:35:01;;;;;;;7.40;2.10;;;28.90;99.90;;;;;;4931970;29;20647;-69
2023/06/07 12:37:26;;;;;;;6.03;1.95;;;29.00;99.90;;;;;;4932079;29;20414;-69
2023/06/07 12:39:52;;;;;;;6.90;2.20;;;29.10;99.90;;;;;;4931817;29;20395;-69
2023/06/07 12:42:17;;;;;;;8.77;2.30;;;28.90;99.90;;;;;;4931998;29;20959;-69
2023/06/07 12:44:43;;;;;;;7.80;2.20;;;28.80;99.90;;;;;;4932256;29;20395;-69